createdAt,value
2023-03-04T00:01:43.266Z,1020.51
2023-03-04T00:06:50.381Z,1020.54
2023-03-04T00:11:57.568Z,1020.53
2023-03-04T00:17:04.766Z,1020.53
2023-03-04T00:22:11.936Z,1020.61
2023-03-04T00:27:19.137Z,1020.55
2023-03-04T00:32:26.426Z,1020.56
2023-03-04T00:37:33.484Z,1020.55
2023-03-04T00:42:40.664Z,1020.55
2023-03-04T00:47:47.873Z,1020.53
2023-03-04T00:52:55.056Z,1020.52
2023-03-04T00:58:02.440Z,1020.45
2023-03-04T01:03:09.861Z,1020.45
2023-03-04T01:08:17.232Z,1020.35
2023-03-04T01:13:24.646Z,1020.33
2023-03-04T01:18:32.160Z,1020.31
2023-03-04T01:23:39.602Z,1020.28
2023-03-04T01:28:50.359Z,1020.27
2023-03-04T01:33:58.068Z,1020.27
2023-03-04T01:39:10.232Z,1020.20
2023-03-04T01:44:17.695Z,1020.19
2023-03-04T01:49:25.444Z,1020.13
2023-03-04T01:54:33.104Z,1020.13
2023-03-04T01:59:40.559Z,1020.10
2023-03-04T02:04:48.093Z,1020.04
2023-03-04T02:09:57.065Z,1020.02
2023-03-04T02:15:05.351Z,1020.00
2023-03-04T02:20:12.685Z,1020.00
2023-03-04T02:25:19.921Z,1020.02
2023-03-04T02:30:27.135Z,1019.99
2023-03-04T02:35:34.493Z,1019.97
2023-03-04T02:40:41.588Z,1019.95
2023-03-04T02:45:48.767Z,1019.97
2023-03-04T02:50:55.954Z,1019.97
2023-03-04T02:56:03.151Z,1019.92
2023-03-04T03:01:10.381Z,1019.95
2023-03-04T03:06:17.630Z,1019.98
2023-03-04T03:11:26.605Z,1020.02
2023-03-04T03:16:32.018Z,1019.98
2023-03-04T03:21:39.200Z,1019.98
2023-03-04T03:26:46.510Z,1020.01
2023-03-04T03:31:53.970Z,1019.99
2023-03-04T03:37:01.315Z,1020.00
2023-03-04T03:42:08.708Z,1019.99
2023-03-04T03:47:25.264Z,1020.09
2023-03-04T03:52:28.047Z,1020.10
2023-03-04T03:57:35.412Z,1020.07
2023-03-04T04:02:42.983Z,1020.13
2023-03-04T04:07:50.643Z,1020.09
2023-03-04T04:12:57.622Z,1020.06
2023-03-04T04:18:04.987Z,1020.05
2023-03-04T04:23:12.265Z,1020.08
2023-03-04T04:28:19.619Z,1020.11
2023-03-04T04:33:26.873Z,1020.15
2023-03-04T04:38:37.929Z,1020.17
2023-03-04T04:43:45.251Z,1020.17
2023-03-04T04:48:52.601Z,1020.20
2023-03-04T04:54:00.035Z,1020.19
2023-03-04T04:59:07.353Z,1020.18
2023-03-04T05:04:14.780Z,1020.20
2023-03-04T05:09:24.102Z,1020.21
2023-03-04T05:14:31.437Z,1020.20
2023-03-04T05:19:38.723Z,1020.18
2023-03-04T05:24:46.157Z,1020.22
2023-03-04T05:29:53.470Z,1020.22
2023-03-04T05:35:00.783Z,1020.26
2023-03-04T05:40:08.350Z,1020.30
2023-03-04T05:45:15.695Z,1020.35
2023-03-04T05:50:23.068Z,1020.36
2023-03-04T05:55:30.394Z,1020.37
2023-03-04T06:00:37.752Z,1020.37
2023-03-04T06:05:45.129Z,1020.43
2023-03-04T06:10:52.538Z,1020.52
2023-03-04T06:15:59.763Z,1020.53
2023-03-04T06:21:07.013Z,1020.59
2023-03-04T06:26:14.376Z,1020.63
2023-03-04T06:31:21.591Z,1020.70
2023-03-04T06:36:28.857Z,1020.76
2023-03-04T06:41:36.192Z,1020.78
2023-03-04T06:46:43.623Z,1020.70
2023-03-04T06:51:50.830Z,1020.76
2023-03-04T06:56:58.247Z,1020.80
2023-03-04T07:02:05.504Z,1020.93
2023-03-04T07:07:12.782Z,1021.03
2023-03-04T07:12:20.072Z,1021.12
2023-03-04T07:17:27.386Z,1021.14
2023-03-04T07:22:34.731Z,1021.13
2023-03-04T07:27:42.098Z,1021.21
2023-03-04T07:32:49.641Z,1021.28
2023-03-04T07:37:56.851Z,1021.27
2023-03-04T07:43:04.245Z,1021.30
2023-03-04T07:48:11.462Z,1021.29
2023-03-04T07:53:18.802Z,1021.30
2023-03-04T07:58:26.261Z,1021.31
2023-03-04T08:03:33.605Z,1021.25
2023-03-04T08:08:40.947Z,1021.28
2023-03-04T08:13:48.348Z,1021.29
2023-03-04T08:18:55.727Z,1021.25
2023-03-04T08:24:03.058Z,1021.21
2023-03-04T08:29:10.563Z,1021.32
2023-03-04T08:34:17.823Z,1021.21
2023-03-04T08:39:25.135Z,1021.19
2023-03-04T08:44:32.434Z,1021.17
2023-03-04T08:49:39.708Z,1021.12
2023-03-04T08:54:46.992Z,1021.15
2023-03-04T08:59:54.478Z,1021.18
2023-03-04T09:05:01.733Z,1021.16
2023-03-04T09:10:09.047Z,1021.17
2023-03-04T09:15:16.332Z,1021.19
2023-03-04T09:20:23.725Z,1021.11
2023-03-04T09:25:31.050Z,1021.08
2023-03-04T09:30:38.324Z,1021.07
2023-03-04T09:35:45.679Z,1021.06
2023-03-04T09:40:53.007Z,1021.03
2023-03-04T09:46:00.331Z,1021.03
2023-03-04T09:51:07.639Z,1021.05
2023-03-04T09:56:14.903Z,1020.96
2023-03-04T10:01:22.324Z,1020.99
2023-03-04T10:06:29.683Z,1020.91
2023-03-04T10:11:37.017Z,1020.90
2023-03-04T10:16:44.356Z,1020.85
2023-03-04T10:21:51.871Z,1020.75
2023-03-04T10:26:59.256Z,1020.70
2023-03-04T10:32:06.762Z,1020.69
2023-03-04T10:37:14.277Z,1020.63
2023-03-04T10:42:21.808Z,1020.59
2023-03-04T10:47:29.006Z,1020.59
2023-03-04T10:52:36.282Z,1020.57
2023-03-04T10:57:43.813Z,1020.50
2023-03-04T11:02:51.253Z,1020.48
2023-03-04T11:07:58.680Z,1020.43
2023-03-04T11:13:05.997Z,1020.32
2023-03-04T11:18:13.391Z,1020.33
2023-03-04T11:23:20.652Z,1020.27
2023-03-04T11:28:27.977Z,1020.20
2023-03-04T11:33:35.391Z,1020.08
2023-03-04T11:38:42.687Z,1020.04
2023-03-04T11:43:49.938Z,1020.00
2023-03-04T11:48:57.397Z,1020.00
2023-03-04T11:54:04.861Z,1019.94
2023-03-04T11:59:12.585Z,1019.87
2023-03-04T12:04:20.087Z,1019.85
2023-03-04T12:09:27.396Z,1019.80
2023-03-04T12:14:35.452Z,1019.73
2023-03-04T12:19:42.940Z,1019.74
2023-03-04T12:24:50.219Z,1019.59
2023-03-04T12:29:57.395Z,1019.55
2023-03-04T12:35:04.586Z,1019.44
2023-03-04T12:40:11.753Z,1019.37
2023-03-04T12:45:18.929Z,1019.32
2023-03-04T12:50:26.106Z,1019.29
2023-03-04T12:55:33.273Z,1019.18
2023-03-04T13:00:40.486Z,1019.14
2023-03-04T13:05:47.708Z,1019.03
2023-03-04T13:10:54.850Z,1018.98
2023-03-04T13:16:02.070Z,1018.95
2023-03-04T13:21:09.259Z,1018.93
2023-03-04T13:26:16.417Z,1018.88
2023-03-04T13:31:23.701Z,1018.80
2023-03-04T13:36:30.808Z,1018.79
2023-03-04T13:41:37.986Z,1018.73
2023-03-04T13:46:45.201Z,1018.66
2023-03-04T13:51:52.535Z,1018.62
2023-03-04T13:56:59.841Z,1018.57
2023-03-04T14:02:07.161Z,1018.55
2023-03-04T14:07:14.578Z,1018.51
2023-03-04T14:12:21.858Z,1018.46
2023-03-04T14:17:29.190Z,1018.44
2023-03-04T14:22:36.397Z,1018.44
2023-03-04T14:27:43.627Z,1018.39
2023-03-04T14:32:50.840Z,1018.40
2023-03-04T14:37:58.057Z,1018.32
2023-03-04T14:43:05.237Z,1018.21
2023-03-04T14:48:12.641Z,1018.25
2023-03-04T14:53:20.292Z,1018.21
2023-03-04T14:58:27.885Z,1018.18
2023-03-04T15:03:35.266Z,1018.15
2023-03-04T15:08:42.742Z,1018.13
2023-03-04T15:13:50.006Z,1018.06
2023-03-04T15:18:57.237Z,1018.02
2023-03-04T15:24:04.513Z,1017.94
2023-03-04T15:29:12.021Z,1017.91
2023-03-04T15:34:19.369Z,1017.88
2023-03-04T15:39:26.545Z,1017.83
2023-03-04T15:44:33.778Z,1017.83
2023-03-04T15:49:41.031Z,1017.79
2023-03-04T15:54:48.332Z,1017.82
2023-03-04T15:59:55.868Z,1017.81
2023-03-04T16:05:03.313Z,1017.89
2023-03-04T16:10:10.805Z,1017.86
2023-03-04T16:15:18.393Z,1017.85
2023-03-04T16:20:26.028Z,1017.87
2023-03-04T16:25:33.448Z,1017.87
2023-03-04T16:30:40.657Z,1017.90
2023-03-04T16:35:48.159Z,1017.90
2023-03-04T16:40:55.346Z,1017.91
2023-03-04T16:46:02.725Z,1017.91
2023-03-04T16:51:09.868Z,1017.90
2023-03-04T16:56:17.184Z,1017.84
2023-03-04T17:01:24.425Z,1017.87
2023-03-04T17:06:31.873Z,1017.86
2023-03-04T17:11:39.312Z,1017.89
2023-03-04T17:16:46.798Z,1017.92
2023-03-04T17:21:54.415Z,1017.96
2023-03-04T17:27:02.150Z,1018.04
2023-03-04T17:32:09.712Z,1018.04
2023-03-04T17:37:17.014Z,1018.07
2023-03-04T17:42:24.600Z,1018.13
2023-03-04T17:47:32.916Z,1018.15
2023-03-04T17:52:39.651Z,1018.13
2023-03-04T17:57:47.135Z,1018.20
2023-03-04T18:02:54.824Z,1018.28
2023-03-04T18:08:02.437Z,1018.30
2023-03-04T18:13:10.196Z,1018.31
2023-03-04T18:18:17.762Z,1018.31
2023-03-04T18:23:26.606Z,1018.31
2023-03-04T18:28:34.248Z,1018.32
2023-03-04T18:33:41.840Z,1018.30
2023-03-04T18:38:49.461Z,1018.29
2023-03-04T18:43:58.133Z,1018.27
2023-03-04T18:49:05.817Z,1018.32
2023-03-04T18:54:13.542Z,1018.33
2023-03-04T18:59:21.268Z,1018.27
2023-03-04T19:04:28.853Z,1018.28
2023-03-04T19:09:36.491Z,1018.36
2023-03-04T19:14:44.109Z,1018.51
2023-03-04T19:19:51.418Z,1018.56
2023-03-04T19:24:58.909Z,1018.61
2023-03-04T19:30:06.336Z,1018.65
2023-03-04T19:35:13.733Z,1018.69
2023-03-04T19:40:21.340Z,1018.71
2023-03-04T19:45:30.030Z,1018.72
2023-03-04T19:50:37.533Z,1018.76
2023-03-04T19:55:45.113Z,1018.85
2023-03-04T20:00:52.800Z,1018.88
2023-03-04T20:06:00.644Z,1018.96
2023-03-04T20:11:08.413Z,1019.13
2023-03-04T20:16:16.298Z,1019.20
2023-03-04T20:21:23.791Z,1019.35
2023-03-04T20:26:31.421Z,1019.52
2023-03-04T20:31:39.043Z,1019.51
2023-03-04T20:36:46.739Z,1019.66
2023-03-04T20:41:54.360Z,1019.66
2023-03-04T20:47:01.989Z,1019.80
2023-03-04T20:52:09.310Z,1019.90
2023-03-04T20:57:16.785Z,1019.95
2023-03-04T21:02:24.354Z,1020.00
2023-03-04T21:07:32.693Z,1020.01
2023-03-04T21:12:39.989Z,1019.96
2023-03-04T21:17:47.468Z,1019.89
2023-03-04T21:22:54.840Z,1019.84
2023-03-04T21:28:02.373Z,1019.86
2023-03-04T21:33:10.131Z,1019.87
2023-03-04T21:38:18.839Z,1019.83
2023-03-04T21:43:26.157Z,1019.77
2023-03-04T21:48:33.592Z,1019.85
2023-03-04T21:53:40.964Z,1019.83
2023-03-04T21:58:48.391Z,1019.76
2023-03-04T22:03:56.417Z,1019.77
2023-03-04T22:09:03.500Z,1019.74
2023-03-04T22:14:10.750Z,1019.79
2023-03-04T22:19:18.004Z,1019.76
2023-03-04T22:24:25.156Z,1019.75
2023-03-04T22:29:32.361Z,1019.75
2023-03-04T22:34:39.556Z,1019.72
2023-03-04T22:39:46.719Z,1019.67
2023-03-04T22:44:53.970Z,1019.65
2023-03-04T22:50:01.233Z,1019.62
2023-03-04T22:55:08.380Z,1019.51
2023-03-04T23:00:15.658Z,1019.46
2023-03-04T23:05:22.985Z,1019.47
2023-03-04T23:10:30.151Z,1019.40
2023-03-04T23:15:37.414Z,1019.40
2023-03-04T23:20:44.640Z,1019.42
2023-03-04T23:25:51.844Z,1019.35
2023-03-04T23:30:59.224Z,1019.36
2023-03-04T23:36:06.289Z,1019.38
2023-03-04T23:41:13.533Z,1019.40
2023-03-04T23:46:21.432Z,1019.35
2023-03-04T23:51:28.634Z,1019.32
2023-03-04T23:56:35.783Z,1019.28
